Portada
METAR-TAF:

METAR-TAF

Aeropuertos :

Aeropuerto Zenata

Tremecén, Argelia

latitud: 35-01N, longitud: 001-28W, altitud: 247 m

Observación

El informe se hizo hace 33 minutos, a las 22:30 UTC
Viento 3 kt del este
Temperatura 8°C
Humedad 61%
Presión 1027 hPa
Visibilidad 10 km o más
sin nubes por debajo de 1500 m y sin presencia de cumulonimbus.

METAR: DAON 152230Z 10003KT CAVOK 08/01 Q1027

Hora: 00:03 (23:03 UTC)

Pronóstico

El informe se hizo hace 6 horas y 3 minutos, a las 17:00 UTC
Pronóstico válido del 15 a las 18 UTC al 16 a las 18 UTC
Viento 10 kt del suroeste
Visibilidad 10 km o más
sin nubes por debajo de 1500 m y sin presencia de cumulonimbus.
Evolucionando progresivamente
del 15 a las 20 UTC al 15 a las 22 UTC
Viento 2 kt con dirección variable
Evolucionando progresivamente
del 16 a las 08 UTC al 16 a las 10 UTC
Viento 10 kt del oeste

TAF: DAON 151700Z 1518/1618 22010KT CAVOK BECMG 1520/1522 VRB02KT BECMG 1608/1610 26010KT

Observaciones y pronósticos meteorológicos de más de 4000 aeropuertos (mensajes METAR y TAF).

Los puntos amarillos y rojos representan las estaciones disponibles.

Ponga el ratón en el punto deseado para ver el nombre de la estación.

Haga clic para ver las observaciones y los pronósticos meteorológicos.

Para cambiar el mapa : haga clic en los botones verdes con una cruz de color negro para hacer un zoom, en el botón verde con un guión para alejar o en las flechas verdes para mapas adyacentes.


METAR-TAF: